sensor_id;sensor_type;location;lat;lon;timestamp;P1;durP1;ratioP1;P2;durP2;ratioP2
6979;SDS011;3530;52.832;10.680;2023-11-22T00:01:40;5.07;;;4.22;;
6979;SDS011;3530;52.832;10.680;2023-11-22T00:04:26;7.88;;;4.15;;
6979;SDS011;3530;52.832;10.680;2023-11-22T00:07:12;7.80;;;5.43;;
6979;SDS011;3530;52.832;10.680;2023-11-22T00:09:57;4.28;;;3.88;;
6979;SDS011;3530;52.832;10.680;2023-11-22T00:12:43;4.53;;;4.13;;
6979;SDS011;3530;52.832;10.680;2023-11-22T00:15:29;7.40;;;5.57;;
6979;SDS011;3530;52.832;10.680;2023-11-22T00:18:15;9.73;;;6.07;;
6979;SDS011;3530;52.832;10.680;2023-11-22T00:21:00;6.82;;;5.15;;
6979;SDS011;3530;52.832;10.680;2023-11-22T00:23:46;4.72;;;4.30;;
6979;SDS011;3530;52.832;10.680;2023-11-22T00:26:32;13.45;;;7.50;;
6979;SDS011;3530;52.832;10.680;2023-11-22T00:29:17;11.88;;;7.63;;
6979;SDS011;3530;52.832;10.680;2023-11-22T00:32:03;4.82;;;4.35;;
6979;SDS011;3530;52.832;10.680;2023-11-22T00:34:50;7.55;;;6.18;;
6979;SDS011;3530;52.832;10.680;2023-11-22T00:37:35;7.40;;;4.85;;
6979;SDS011;3530;52.832;10.680;2023-11-22T00:40:21;5.65;;;3.85;;
6979;SDS011;3530;52.832;10.680;2023-11-22T00:43:06;4.72;;;4.32;;
6979;SDS011;3530;52.832;10.680;2023-11-22T00:45:52;7.55;;;4.88;;
6979;SDS011;3530;52.832;10.680;2023-11-22T00:48:38;6.20;;;4.53;;
6979;SDS011;3530;52.832;10.680;2023-11-22T00:51:24;4.38;;;4.03;;
6979;SDS011;3530;52.832;10.680;2023-11-22T00:54:09;4.32;;;3.92;;
6979;SDS011;3530;52.832;10.680;2023-11-22T00:56:55;4.82;;;3.80;;
6979;SDS011;3530;52.832;10.680;2023-11-22T00:59:40;5.90;;;4.25;;
6979;SDS011;3530;52.832;10.680;2023-11-22T01:02:26;5.10;;;4.32;;
6979;SDS011;3530;52.832;10.680;2023-11-22T01:05:12;4.60;;;4.03;;
6979;SDS011;3530;52.832;10.680;2023-11-22T01:07:58;3.85;;;3.55;;
6979;SDS011;3530;52.832;10.680;2023-11-22T01:10:43;5.32;;;3.90;;
6979;SDS011;3530;52.832;10.680;2023-11-22T01:13:29;5.32;;;4.38;;
6979;SDS011;3530;52.832;10.680;2023-11-22T01:16:15;3.42;;;3.22;;
6979;SDS011;3530;52.832;10.680;2023-11-22T01:19:01;3.50;;;3.20;;
6979;SDS011;3530;52.832;10.680;2023-11-22T01:21:47;3.95;;;3.53;;
6979;SDS011;3530;52.832;10.680;2023-11-22T01:24:32;4.55;;;4.07;;
6979;SDS011;3530;52.832;10.680;2023-11-22T01:27:18;3.70;;;3.40;;
6979;SDS011;3530;52.832;10.680;2023-11-22T01:30:04;4.63;;;4.20;;
6979;SDS011;3530;52.832;10.680;2023-11-22T01:32:52;4.18;;;3.53;;
6979;SDS011;3530;52.832;10.680;2023-11-22T01:35:38;3.30;;;3.10;;
6979;SDS011;3530;52.832;10.680;2023-11-22T01:38:23;4.65;;;4.03;;
6979;SDS011;3530;52.832;10.680;2023-11-22T01:41:10;4.40;;;4.00;;
6979;SDS011;3530;52.832;10.680;2023-11-22T01:43:58;4.85;;;4.28;;
6979;SDS011;3530;52.832;10.680;2023-11-22T01:46:44;4.03;;;3.72;;
6979;SDS011;3530;52.832;10.680;2023-11-22T01:49:29;4.60;;;4.10;;
6979;SDS011;3530;52.832;10.680;2023-11-22T01:52:15;4.20;;;3.90;;
6979;SDS011;3530;52.832;10.680;2023-11-22T01:55:04;5.15;;;3.95;;
6979;SDS011;3530;52.832;10.680;2023-11-22T01:57:50;4.38;;;3.58;;
6979;SDS011;3530;52.832;10.680;2023-11-22T02:00:41;5.15;;;4.20;;
6979;SDS011;3530;52.832;10.680;2023-11-22T02:03:30;4.40;;;3.70;;
6979;SDS011;3530;52.832;10.680;2023-11-22T02:06:16;4.30;;;3.90;;
6979;SDS011;3530;52.832;10.680;2023-11-22T02:09:01;4.55;;;4.13;;
6979;SDS011;3530;52.832;10.680;2023-11-22T02:11:47;4.10;;;3.80;;
6979;SDS011;3530;52.832;10.680;2023-11-22T02:14:34;5.82;;;4.47;;
6979;SDS011;3530;52.832;10.680;2023-11-22T02:17:20;5.60;;;4.15;;
6979;SDS011;3530;52.832;10.680;2023-11-22T02:20:10;4.05;;;3.75;;
6979;SDS011;3530;52.832;10.680;2023-11-22T02:22:56;4.65;;;4.25;;
6979;SDS011;3530;52.832;10.680;2023-11-22T02:25:42;4.60;;;4.20;;
6979;SDS011;3530;52.832;10.680;2023-11-22T02:28:28;6.78;;;3.58;;
6979;SDS011;3530;52.832;10.680;2023-11-22T02:31:14;5.25;;;3.83;;
6979;SDS011;3530;52.832;10.680;2023-11-22T02:33:59;3.92;;;3.60;;
6979;SDS011;3530;52.832;10.680;2023-11-22T02:36:45;4.00;;;3.70;;
6979;SDS011;3530;52.832;10.680;2023-11-22T02:39:35;4.10;;;3.80;;
6979;SDS011;3530;52.832;10.680;2023-11-22T02:42:28;4.25;;;3.95;;
6979;SDS011;3530;52.832;10.680;2023-11-22T02:45:15;4.40;;;3.85;;
6979;SDS011;3530;52.832;10.680;2023-11-22T02:48:01;4.22;;;3.92;;
6979;SDS011;3530;52.832;10.680;2023-11-22T02:50:48;4.20;;;3.80;;
6979;SDS011;3530;52.832;10.680;2023-11-22T02:53:34;3.90;;;3.60;;
6979;SDS011;3530;52.832;10.680;2023-11-22T02:56:20;4.47;;;4.03;;
6979;SDS011;3530;52.832;10.680;2023-11-22T02:59:06;4.03;;;3.72;;
6979;SDS011;3530;52.832;10.680;2023-11-22T03:01:58;4.10;;;3.70;;
6979;SDS011;3530;52.832;10.680;2023-11-22T03:04:44;4.03;;;3.72;;
6979;SDS011;3530;52.832;10.680;2023-11-22T03:07:29;4.72;;;3.90;;
6979;SDS011;3530;52.832;10.680;2023-11-22T03:10:15;4.50;;;3.70;;
6979;SDS011;3530;52.832;10.680;2023-11-22T03:13:03;4.10;;;3.80;;
6979;SDS011;3530;52.832;10.680;2023-11-22T03:15:49;4.43;;;3.75;;
6979;SDS011;3530;52.832;10.680;2023-11-22T03:18:35;3.85;;;3.55;;
6979;SDS011;3530;52.832;10.680;2023-11-22T03:21:21;3.53;;;3.22;;
6979;SDS011;3530;52.832;10.680;2023-11-22T03:24:07;3.83;;;3.53;;
6979;SDS011;3530;52.832;10.680;2023-11-22T03:26:53;5.07;;;3.90;;
6979;SDS011;3530;52.832;10.680;2023-11-22T03:29:41;4.13;;;3.83;;
6979;SDS011;3530;52.832;10.680;2023-11-22T03:32:27;4.03;;;3.72;;
6979;SDS011;3530;52.832;10.680;2023-11-22T03:35:13;3.70;;;3.40;;
6979;SDS011;3530;52.832;10.680;2023-11-22T03:37:59;3.63;;;3.42;;
6979;SDS011;3530;52.832;10.680;2023-11-22T03:40:45;3.80;;;3.50;;
6979;SDS011;3530;52.832;10.680;2023-11-22T03:43:31;3.83;;;3.53;;
6979;SDS011;3530;52.832;10.680;2023-11-22T03:46:17;3.85;;;3.55;;
6979;SDS011;3530;52.832;10.680;2023-11-22T03:49:05;3.92;;;3.42;;
6979;SDS011;3530;52.832;10.680;2023-11-22T03:51:53;3.90;;;3.60;;
6979;SDS011;3530;52.832;10.680;2023-11-22T03:54:39;5.25;;;3.83;;
6979;SDS011;3530;52.832;10.680;2023-11-22T03:57:25;3.75;;;3.45;;
6979;SDS011;3530;52.832;10.680;2023-11-22T04:00:11;4.30;;;3.90;;
6979;SDS011;3530;52.832;10.680;2023-11-22T04:02:57;4.07;;;3.67;;
6979;SDS011;3530;52.832;10.680;2023-11-22T04:05:45;4.25;;;3.72;;
6979;SDS011;3530;52.832;10.680;2023-11-22T04:08:31;3.58;;;3.30;;
6979;SDS011;3530;52.832;10.680;2023-11-22T04:11:16;4.15;;;3.85;;
6979;SDS011;3530;52.832;10.680;2023-11-22T04:14:03;3.90;;;3.55;;
6979;SDS011;3530;52.832;10.680;2023-11-22T04:16:49;3.63;;;3.33;;
6979;SDS011;3530;52.832;10.680;2023-11-22T04:19:34;4.30;;;3.88;;
6979;SDS011;3530;52.832;10.680;2023-11-22T04:22:20;3.90;;;3.60;;
6979;SDS011;3530;52.832;10.680;2023-11-22T04:25:06;4.28;;;3.15;;
6979;SDS011;3530;52.832;10.680;2023-11-22T04:27:53;3.33;;;3.03;;
6979;SDS011;3530;52.832;10.680;2023-11-22T04:30:39;3.75;;;3.45;;
6979;SDS011;3530;52.832;10.680;2023-11-22T04:33:25;3.67;;;3.47;;
6979;SDS011;3530;52.832;10.680;2023-11-22T04:36:13;3.85;;;3.55;;
6979;SDS011;3530;52.832;10.680;2023-11-22T04:38:59;6.07;;;3.78;;
6979;SDS011;3530;52.832;10.680;2023-11-22T04:41:45;4.03;;;3.60;;
6979;SDS011;3530;52.832;10.680;2023-11-22T04:44:31;3.63;;;3.03;;
6979;SDS011;3530;52.832;10.680;2023-11-22T04:47:17;4.07;;;3.50;;
6979;SDS011;3530;52.832;10.680;2023-11-22T04:50:03;3.60;;;3.30;;
6979;SDS011;3530;52.832;10.680;2023-11-22T04:52:50;3.33;;;3.13;;
6979;SDS011;3530;52.832;10.680;2023-11-22T04:55:36;3.60;;;3.25;;
6979;SDS011;3530;52.832;10.680;2023-11-22T04:58:22;4.18;;;3.78;;
6979;SDS011;3530;52.832;10.680;2023-11-22T05:01:07;3.90;;;3.30;;
6979;SDS011;3530;52.832;10.680;2023-11-22T05:03:54;4.32;;;3.95;;
6979;SDS011;3530;52.832;10.680;2023-11-22T05:06:41;5.47;;;4.30;;
6979;SDS011;3530;52.832;10.680;2023-11-22T05:09:26;4.30;;;3.70;;
6979;SDS011;3530;52.832;10.680;2023-11-22T05:12:12;3.88;;;3.58;;
6979;SDS011;3530;52.832;10.680;2023-11-22T05:14:58;4.53;;;4.13;;
6979;SDS011;3530;52.832;10.680;2023-11-22T05:17:43;3.83;;;3.53;;
6979;SDS011;3530;52.832;10.680;2023-11-22T05:20:29;6.15;;;4.47;;
6979;SDS011;3530;52.832;10.680;2023-11-22T05:23:15;5.25;;;4.75;;
6979;SDS011;3530;52.832;10.680;2023-11-22T05:26:00;4.38;;;3.83;;
6979;SDS011;3530;52.832;10.680;2023-11-22T05:28:46;6.13;;;3.63;;
6979;SDS011;3530;52.832;10.680;2023-11-22T05:31:32;4.93;;;4.43;;
6979;SDS011;3530;52.832;10.680;2023-11-22T05:34:18;5.80;;;4.75;;
6979;SDS011;3530;52.832;10.680;2023-11-22T05:37:04;6.65;;;5.07;;
6979;SDS011;3530;52.832;10.680;2023-11-22T05:39:51;5.22;;;4.70;;
6979;SDS011;3530;52.832;10.680;2023-11-22T05:42:36;5.30;;;4.30;;
6979;SDS011;3530;52.832;10.680;2023-11-22T05:45:22;5.20;;;4.30;;
6979;SDS011;3530;52.832;10.680;2023-11-22T05:48:09;5.13;;;4.18;;
6979;SDS011;3530;52.832;10.680;2023-11-22T05:50:54;4.57;;;4.18;;
6979;SDS011;3530;52.832;10.680;2023-11-22T05:53:40;4.75;;;4.05;;
6979;SDS011;3530;52.832;10.680;2023-11-22T05:56:26;4.53;;;4.03;;
6979;SDS011;3530;52.832;10.680;2023-11-22T05:59:12;6.25;;;4.38;;
6979;SDS011;3530;52.832;10.680;2023-11-22T06:01:57;4.05;;;3.75;;
6979;SDS011;3530;52.832;10.680;2023-11-22T06:04:43;4.70;;;4.28;;
6979;SDS011;3530;52.832;10.680;2023-11-22T06:07:29;5.18;;;4.68;;
6979;SDS011;3530;52.832;10.680;2023-11-22T06:10:14;4.53;;;4.13;;
6979;SDS011;3530;52.832;10.680;2023-11-22T06:13:01;3.83;;;3.60;;
6979;SDS011;3530;52.832;10.680;2023-11-22T06:15:46;4.88;;;4.32;;
6979;SDS011;3530;52.832;10.680;2023-11-22T06:18:32;5.50;;;5.00;;
6979;SDS011;3530;52.832;10.680;2023-11-22T06:21:19;6.38;;;5.25;;
6979;SDS011;3530;52.832;10.680;2023-11-22T06:24:05;4.95;;;4.38;;
6979;SDS011;3530;52.832;10.680;2023-11-22T06:26:53;4.97;;;4.57;;
6979;SDS011;3530;52.832;10.680;2023-11-22T06:29:39;7.20;;;5.40;;
6979;SDS011;3530;52.832;10.680;2023-11-22T06:32:25;6.85;;;5.43;;
6979;SDS011;3530;52.832;10.680;2023-11-22T06:35:10;6.93;;;5.57;;
6979;SDS011;3530;52.832;10.680;2023-11-22T06:38:00;7.28;;;5.15;;
6979;SDS011;3530;52.832;10.680;2023-11-22T06:40:46;5.05;;;4.50;;
6979;SDS011;3530;52.832;10.680;2023-11-22T06:43:31;6.05;;;4.93;;
6979;SDS011;3530;52.832;10.680;2023-11-22T06:46:17;4.70;;;4.30;;
6979;SDS011;3530;52.832;10.680;2023-11-22T06:49:03;4.32;;;3.97;;
6979;SDS011;3530;52.832;10.680;2023-11-22T06:51:48;7.57;;;4.20;;
6979;SDS011;3530;52.832;10.680;2023-11-22T06:54:34;5.25;;;4.75;;
6979;SDS011;3530;52.832;10.680;2023-11-22T06:57:20;4.35;;;4.05;;
6979;SDS011;3530;52.832;10.680;2023-11-22T07:00:13;5.00;;;4.53;;
6979;SDS011;3530;52.832;10.680;2023-11-22T07:03:00;6.60;;;4.38;;
6979;SDS011;3530;52.832;10.680;2023-11-22T07:05:46;4.25;;;3.95;;
6979;SDS011;3530;52.832;10.680;2023-11-22T07:08:32;6.78;;;4.78;;
6979;SDS011;3530;52.832;10.680;2023-11-22T07:11:21;5.20;;;4.57;;
6979;SDS011;3530;52.832;10.680;2023-11-22T07:14:08;4.60;;;4.20;;
6979;SDS011;3530;52.832;10.680;2023-11-22T07:16:54;5.60;;;4.63;;
6979;SDS011;3530;52.832;10.680;2023-11-22T07:19:42;5.93;;;4.40;;
6979;SDS011;3530;52.832;10.680;2023-11-22T07:22:31;5.38;;;4.32;;
6979;SDS011;3530;52.832;10.680;2023-11-22T07:25:17;5.50;;;4.75;;
6979;SDS011;3530;52.832;10.680;2023-11-22T07:28:04;5.28;;;4.78;;
6979;SDS011;3530;52.832;10.680;2023-11-22T07:30:49;4.63;;;4.22;;
6979;SDS011;3530;52.832;10.680;2023-11-22T07:33:35;6.20;;;4.88;;
6979;SDS011;3530;52.832;10.680;2023-11-22T07:36:21;4.18;;;3.90;;
6979;SDS011;3530;52.832;10.680;2023-11-22T07:39:06;5.95;;;4.25;;
6979;SDS011;3530;52.832;10.680;2023-11-22T07:41:55;5.35;;;4.13;;
6979;SDS011;3530;52.832;10.680;2023-11-22T07:44:41;5.70;;;4.82;;
6979;SDS011;3530;52.832;10.680;2023-11-22T07:47:27;14.52;;;5.38;;
6979;SDS011;3530;52.832;10.680;2023-11-22T07:50:14;8.82;;;5.00;;
6979;SDS011;3530;52.832;10.680;2023-11-22T07:52:59;4.75;;;4.28;;
6979;SDS011;3530;52.832;10.680;2023-11-22T07:55:45;6.95;;;4.38;;
6979;SDS011;3530;52.832;10.680;2023-11-22T07:58:31;9.90;;;5.68;;
6979;SDS011;3530;52.832;10.680;2023-11-22T08:01:17;4.65;;;4.13;;
6979;SDS011;3530;52.832;10.680;2023-11-22T08:04:03;3.92;;;3.63;;
6979;SDS011;3530;52.832;10.680;2023-11-22T08:06:50;4.18;;;3.88;;
6979;SDS011;3530;52.832;10.680;2023-11-22T08:09:36;5.20;;;4.10;;
6979;SDS011;3530;52.832;10.680;2023-11-22T08:12:22;4.55;;;4.10;;
6979;SDS011;3530;52.832;10.680;2023-11-22T08:15:08;4.40;;;4.10;;
6979;SDS011;3530;52.832;10.680;2023-11-22T08:17:55;12.52;;;8.38;;
6979;SDS011;3530;52.832;10.680;2023-11-22T08:20:41;7.35;;;5.82;;
6979;SDS011;3530;52.832;10.680;2023-11-22T08:23:26;9.73;;;8.52;;
6979;SDS011;3530;52.832;10.680;2023-11-22T08:26:12;12.10;;;8.43;;
6979;SDS011;3530;52.832;10.680;2023-11-22T08:28:58;9.73;;;8.02;;
6979;SDS011;3530;52.832;10.680;2023-11-22T08:31:43;9.77;;;7.53;;
6979;SDS011;3530;52.832;10.680;2023-11-22T08:34:29;15.95;;;9.93;;
6979;SDS011;3530;52.832;10.680;2023-11-22T08:37:15;13.20;;;8.43;;
6979;SDS011;3530;52.832;10.680;2023-11-22T08:40:01;9.80;;;7.72;;
6979;SDS011;3530;52.832;10.680;2023-11-22T08:42:47;10.07;;;6.97;;
6979;SDS011;3530;52.832;10.680;2023-11-22T08:45:33;5.63;;;5.13;;
6979;SDS011;3530;52.832;10.680;2023-11-22T08:48:20;9.55;;;6.13;;
6979;SDS011;3530;52.832;10.680;2023-11-22T08:51:06;7.40;;;5.72;;
6979;SDS011;3530;52.832;10.680;2023-11-22T08:53:53;7.57;;;6.32;;
6979;SDS011;3530;52.832;10.680;2023-11-22T08:56:38;5.30;;;4.80;;
6979;SDS011;3530;52.832;10.680;2023-11-22T08:59:24;5.18;;;4.38;;
6979;SDS011;3530;52.832;10.680;2023-11-22T09:02:10;4.78;;;4.25;;
6979;SDS011;3530;52.832;10.680;2023-11-22T09:04:57;4.13;;;3.83;;
6979;SDS011;3530;52.832;10.680;2023-11-22T09:07:43;4.75;;;4.30;;
6979;SDS011;3530;52.832;10.680;2023-11-22T09:10:29;4.43;;;4.00;;
6979;SDS011;3530;52.832;10.680;2023-11-22T09:13:16;4.75;;;3.83;;
6979;SDS011;3530;52.832;10.680;2023-11-22T09:16:02;4.90;;;4.40;;
6979;SDS011;3530;52.832;10.680;2023-11-22T09:18:50;4.35;;;3.88;;
6979;SDS011;3530;52.832;10.680;2023-11-22T09:21:36;3.88;;;3.58;;
6979;SDS011;3530;52.832;10.680;2023-11-22T09:24:22;4.45;;;3.97;;
6979;SDS011;3530;52.832;10.680;2023-11-22T09:27:07;3.33;;;3.10;;
6979;SDS011;3530;52.832;10.680;2023-11-22T09:29:55;3.72;;;3.42;;
6979;SDS011;3530;52.832;10.680;2023-11-22T09:32:41;3.58;;;3.28;;
6979;SDS011;3530;52.832;10.680;2023-11-22T09:35:27;3.80;;;3.50;;
6979;SDS011;3530;52.832;10.680;2023-11-22T09:38:14;3.78;;;3.50;;
6979;SDS011;3530;52.832;10.680;2023-11-22T09:41:01;4.40;;;3.42;;
6979;SDS011;3530;52.832;10.680;2023-11-22T09:43:48;4.20;;;3.90;;
6979;SDS011;3530;52.832;10.680;2023-11-22T09:46:35;8.25;;;4.60;;
6979;SDS011;3530;52.832;10.680;2023-11-22T09:49:24;5.45;;;4.15;;
6979;SDS011;3530;52.832;10.680;2023-11-22T09:52:11;3.88;;;3.55;;
6979;SDS011;3530;52.832;10.680;2023-11-22T09:55:00;3.90;;;3.58;;
6979;SDS011;3530;52.832;10.680;2023-11-22T09:57:48;5.80;;;4.05;;
6979;SDS011;3530;52.832;10.680;2023-11-22T10:00:34;4.50;;;4.03;;
6979;SDS011;3530;52.832;10.680;2023-11-22T10:03:20;4.20;;;3.80;;
6979;SDS011;3530;52.832;10.680;2023-11-22T10:06:06;4.50;;;4.10;;
6979;SDS011;3530;52.832;10.680;2023-11-22T10:08:52;4.25;;;3.80;;
6979;SDS011;3530;52.832;10.680;2023-11-22T10:11:38;4.10;;;3.85;;
6979;SDS011;3530;52.832;10.680;2023-11-22T10:14:25;5.28;;;3.33;;
6979;SDS011;3530;52.832;10.680;2023-11-22T10:17:11;5.40;;;4.15;;
6979;SDS011;3530;52.832;10.680;2023-11-22T10:19:56;4.32;;;3.92;;
6979;SDS011;3530;52.832;10.680;2023-11-22T10:22:43;5.18;;;4.32;;
6979;SDS011;3530;52.832;10.680;2023-11-22T10:25:30;4.47;;;4.07;;
6979;SDS011;3530;52.832;10.680;2023-11-22T10:28:18;4.30;;;3.90;;
6979;SDS011;3530;52.832;10.680;2023-11-22T10:31:05;5.53;;;4.30;;
6979;SDS011;3530;52.832;10.680;2023-11-22T10:33:52;5.55;;;4.40;;
6979;SDS011;3530;52.832;10.680;2023-11-22T10:36:38;8.20;;;4.43;;
6979;SDS011;3530;52.832;10.680;2023-11-22T10:39:24;4.43;;;4.03;;
6979;SDS011;3530;52.832;10.680;2023-11-22T10:42:11;4.43;;;4.03;;
6979;SDS011;3530;52.832;10.680;2023-11-22T10:44:57;6.25;;;4.47;;
6979;SDS011;3530;52.832;10.680;2023-11-22T10:47:44;4.38;;;3.97;;
6979;SDS011;3530;52.832;10.680;2023-11-22T10:50:31;4.15;;;3.75;;
6979;SDS011;3530;52.832;10.680;2023-11-22T10:53:20;4.95;;;3.85;;
6979;SDS011;3530;52.832;10.680;2023-11-22T10:56:14;6.20;;;4.82;;
6979;SDS011;3530;52.832;10.680;2023-11-22T10:59:01;6.65;;;4.22;;
6979;SDS011;3530;52.832;10.680;2023-11-22T11:01:47;4.20;;;3.40;;
6979;SDS011;3530;52.832;10.680;2023-11-22T11:04:39;3.78;;;3.47;;
6979;SDS011;3530;52.832;10.680;2023-11-22T11:07:29;4.25;;;3.58;;
6979;SDS011;3530;52.832;10.680;2023-11-22T11:10:16;4.57;;;4.18;;
6979;SDS011;3530;52.832;10.680;2023-11-22T11:13:03;4.60;;;4.20;;
6979;SDS011;3530;52.832;10.680;2023-11-22T11:15:49;9.07;;;5.03;;
6979;SDS011;3530;52.832;10.680;2023-11-22T11:18:35;5.55;;;5.05;;
6979;SDS011;3530;52.832;10.680;2023-11-22T11:21:21;4.72;;;4.32;;
6979;SDS011;3530;52.832;10.680;2023-11-22T11:24:07;5.85;;;4.13;;
6979;SDS011;3530;52.832;10.680;2023-11-22T11:26:53;4.68;;;4.28;;
6979;SDS011;3530;52.832;10.680;2023-11-22T11:29:39;4.82;;;4.43;;
6979;SDS011;3530;52.832;10.680;2023-11-22T11:32:32;4.93;;;4.35;;
6979;SDS011;3530;52.832;10.680;2023-11-22T11:35:18;4.47;;;4.07;;
6979;SDS011;3530;52.832;10.680;2023-11-22T11:38:03;4.20;;;3.83;;
6979;SDS011;3530;52.832;10.680;2023-11-22T11:40:49;3.85;;;3.55;;
6979;SDS011;3530;52.832;10.680;2023-11-22T11:43:45;4.55;;;4.00;;
6979;SDS011;3530;52.832;10.680;2023-11-22T11:46:32;4.07;;;3.78;;
6979;SDS011;3530;52.832;10.680;2023-11-22T11:49:18;4.57;;;4.18;;
6979;SDS011;3530;52.832;10.680;2023-11-22T11:52:04;8.23;;;4.38;;
6979;SDS011;3530;52.832;10.680;2023-11-22T11:54:50;4.63;;;4.22;;
6979;SDS011;3530;52.832;10.680;2023-11-22T11:57:36;5.82;;;4.47;;
6979;SDS011;3530;52.832;10.680;2023-11-22T12:00:23;3.85;;;3.55;;
6979;SDS011;3530;52.832;10.680;2023-11-22T12:03:13;5.53;;;5.00;;
6979;SDS011;3530;52.832;10.680;2023-11-22T12:06:06;5.45;;;4.95;;
6979;SDS011;3530;52.832;10.680;2023-11-22T12:08:52;5.72;;;5.07;;
6979;SDS011;3530;52.832;10.680;2023-11-22T12:11:38;5.35;;;4.95;;
6979;SDS011;3530;52.832;10.680;2023-11-22T12:14:24;5.63;;;5.10;;
6979;SDS011;3530;52.832;10.680;2023-11-22T12:17:10;6.15;;;5.10;;
6979;SDS011;3530;52.832;10.680;2023-11-22T12:20:15;5.25;;;4.72;;
6979;SDS011;3530;52.832;10.680;2023-11-22T12:23:02;6.03;;;5.13;;
6979;SDS011;3530;52.832;10.680;2023-11-22T12:25:48;5.40;;;4.90;;
6979;SDS011;3530;52.832;10.680;2023-11-22T12:28:34;5.68;;;4.55;;
6979;SDS011;3530;52.832;10.680;2023-11-22T12:31:20;6.47;;;4.32;;
6979;SDS011;3530;52.832;10.680;2023-11-22T12:34:06;4.13;;;3.83;;
6979;SDS011;3530;52.832;10.680;2023-11-22T12:36:53;12.32;;;6.53;;
6979;SDS011;3530;52.832;10.680;2023-11-22T12:39:39;5.30;;;4.75;;
6979;SDS011;3530;52.832;10.680;2023-11-22T12:42:27;4.63;;;4.10;;
6979;SDS011;3530;52.832;10.680;2023-11-22T12:45:20;4.32;;;3.92;;
6979;SDS011;3530;52.832;10.680;2023-11-22T12:48:19;4.68;;;4.20;;
6979;SDS011;3530;52.832;10.680;2023-11-22T12:51:15;6.32;;;4.72;;
6979;SDS011;3530;52.832;10.680;2023-11-22T12:54:02;3.88;;;3.58;;
6979;SDS011;3530;52.832;10.680;2023-11-22T12:56:51;4.28;;;3.90;;
6979;SDS011;3530;52.832;10.680;2023-11-22T12:59:43;4.10;;;3.80;;
6979;SDS011;3530;52.832;10.680;2023-11-22T13:02:28;5.65;;;4.13;;
6979;SDS011;3530;52.832;10.680;2023-11-22T13:05:14;4.97;;;3.70;;
6979;SDS011;3530;52.832;10.680;2023-11-22T13:08:01;4.15;;;3.85;;
6979;SDS011;3530;52.832;10.680;2023-11-22T13:10:49;4.88;;;3.72;;
6979;SDS011;3530;52.832;10.680;2023-11-22T13:13:42;4.53;;;4.13;;
6979;SDS011;3530;52.832;10.680;2023-11-22T13:16:28;4.55;;;4.07;;
6979;SDS011;3530;52.832;10.680;2023-11-22T13:19:13;5.70;;;4.13;;
6979;SDS011;3530;52.832;10.680;2023-11-22T13:21:59;4.07;;;3.75;;
6979;SDS011;3530;52.832;10.680;2023-11-22T13:24:44;4.72;;;3.90;;
6979;SDS011;3530;52.832;10.680;2023-11-22T13:27:30;3.88;;;3.58;;
6979;SDS011;3530;52.832;10.680;2023-11-22T13:30:16;4.35;;;3.65;;
6979;SDS011;3530;52.832;10.680;2023-11-22T13:33:07;5.03;;;4.00;;
6979;SDS011;3530;52.832;10.680;2023-11-22T13:35:53;6.10;;;4.00;;
6979;SDS011;3530;52.832;10.680;2023-11-22T13:38:39;4.18;;;3.88;;
6979;SDS011;3530;52.832;10.680;2023-11-22T13:41:25;4.80;;;4.35;;
6979;SDS011;3530;52.832;10.680;2023-11-22T13:44:11;6.15;;;5.55;;
6979;SDS011;3530;52.832;10.680;2023-11-22T13:46:56;4.55;;;4.15;;
6979;SDS011;3530;52.832;10.680;2023-11-22T13:49:43;6.00;;;5.38;;
6979;SDS011;3530;52.832;10.680;2023-11-22T13:52:29;14.13;;;8.70;;
6979;SDS011;3530;52.832;10.680;2023-11-22T13:55:15;9.85;;;7.35;;
6979;SDS011;3530;52.832;10.680;2023-11-22T13:58:03;5.85;;;4.60;;
6979;SDS011;3530;52.832;10.680;2023-11-22T14:00:50;7.82;;;5.53;;
6979;SDS011;3530;52.832;10.680;2023-11-22T14:03:39;14.57;;;9.45;;
6979;SDS011;3530;52.832;10.680;2023-11-22T14:06:25;10.80;;;8.60;;
6979;SDS011;3530;52.832;10.680;2023-11-22T14:09:10;10.20;;;6.75;;
6979;SDS011;3530;52.832;10.680;2023-11-22T14:11:58;10.82;;;7.72;;
6979;SDS011;3530;52.832;10.680;2023-11-22T14:14:43;14.07;;;9.68;;
6979;SDS011;3530;52.832;10.680;2023-11-22T14:17:30;7.75;;;6.47;;
6979;SDS011;3530;52.832;10.680;2023-11-22T14:20:16;5.22;;;4.63;;
6979;SDS011;3530;52.832;10.680;2023-11-22T14:23:01;6.05;;;4.55;;
6979;SDS011;3530;52.832;10.680;2023-11-22T14:25:47;7.20;;;5.47;;
6979;SDS011;3530;52.832;10.680;2023-11-22T14:28:33;16.70;;;11.85;;
6979;SDS011;3530;52.832;10.680;2023-11-22T14:31:18;23.88;;;15.90;;
6979;SDS011;3530;52.832;10.680;2023-11-22T14:34:04;20.33;;;13.18;;
6979;SDS011;3530;52.832;10.680;2023-11-22T14:36:50;6.68;;;4.80;;
6979;SDS011;3530;52.832;10.680;2023-11-22T14:39:36;8.63;;;5.05;;
6979;SDS011;3530;52.832;10.680;2023-11-22T14:42:22;5.25;;;4.40;;
6979;SDS011;3530;52.832;10.680;2023-11-22T14:45:10;6.00;;;4.60;;
6979;SDS011;3530;52.832;10.680;2023-11-22T14:47:56;5.30;;;4.72;;
6979;SDS011;3530;52.832;10.680;2023-11-22T14:50:43;6.38;;;4.80;;
6979;SDS011;3530;52.832;10.680;2023-11-22T14:53:28;9.27;;;4.95;;
6979;SDS011;3530;52.832;10.680;2023-11-22T14:56:14;8.02;;;5.03;;
6979;SDS011;3530;52.832;10.680;2023-11-22T14:59:00;4.80;;;4.40;;
6979;SDS011;3530;52.832;10.680;2023-11-22T15:01:47;5.60;;;5.10;;
6979;SDS011;3530;52.832;10.680;2023-11-22T15:04:33;6.93;;;4.90;;
6979;SDS011;3530;52.832;10.680;2023-11-22T15:07:21;5.47;;;4.43;;
6979;SDS011;3530;52.832;10.680;2023-11-22T15:10:08;6.88;;;4.55;;
6979;SDS011;3530;52.832;10.680;2023-11-22T15:12:55;6.18;;;4.80;;
6979;SDS011;3530;52.832;10.680;2023-11-22T15:15:40;5.32;;;4.22;;
6979;SDS011;3530;52.832;10.680;2023-11-22T15:18:26;4.85;;;4.45;;
6979;SDS011;3530;52.832;10.680;2023-11-22T15:21:12;4.95;;;4.45;;
6979;SDS011;3530;52.832;10.680;2023-11-22T15:23:59;6.00;;;4.88;;
6979;SDS011;3530;52.832;10.680;2023-11-22T15:26:45;4.93;;;4.45;;
6979;SDS011;3530;52.832;10.680;2023-11-22T15:29:30;5.38;;;4.88;;
6979;SDS011;3530;52.832;10.680;2023-11-22T15:32:17;5.40;;;4.90;;
6979;SDS011;3530;52.832;10.680;2023-11-22T15:35:03;8.10;;;6.03;;
6979;SDS011;3530;52.832;10.680;2023-11-22T15:37:50;9.55;;;7.15;;
6979;SDS011;3530;52.832;10.680;2023-11-22T15:40:35;9.45;;;7.72;;
6979;SDS011;3530;52.832;10.680;2023-11-22T15:43:21;7.60;;;5.43;;
6979;SDS011;3530;52.832;10.680;2023-11-22T15:46:07;27.75;;;18.77;;
6979;SDS011;3530;52.832;10.680;2023-11-22T15:49:04;11.88;;;8.38;;
6979;SDS011;3530;52.832;10.680;2023-11-22T15:51:49;6.47;;;5.68;;
6979;SDS011;3530;52.832;10.680;2023-11-22T15:54:35;7.72;;;6.80;;
6979;SDS011;3530;52.832;10.680;2023-11-22T15:57:21;6.45;;;5.80;;
6979;SDS011;3530;52.832;10.680;2023-11-22T16:00:07;5.60;;;5.05;;
6979;SDS011;3530;52.832;10.680;2023-11-22T16:02:55;11.50;;;5.18;;
6979;SDS011;3530;52.832;10.680;2023-11-22T16:05:41;6.97;;;5.25;;
6979;SDS011;3530;52.832;10.680;2023-11-22T16:08:27;8.63;;;5.93;;
6979;SDS011;3530;52.832;10.680;2023-11-22T16:11:13;9.05;;;5.63;;
6979;SDS011;3530;52.832;10.680;2023-11-22T16:13:58;6.78;;;6.07;;
6979;SDS011;3530;52.832;10.680;2023-11-22T16:16:44;15.45;;;11.05;;
6979;SDS011;3530;52.832;10.680;2023-11-22T16:19:30;6.18;;;5.57;;
6979;SDS011;3530;52.832;10.680;2023-11-22T16:22:16;7.55;;;6.00;;
6979;SDS011;3530;52.832;10.680;2023-11-22T16:25:01;6.90;;;5.55;;
6979;SDS011;3530;52.832;10.680;2023-11-22T16:27:47;8.10;;;5.85;;
6979;SDS011;3530;52.832;10.680;2023-11-22T16:30:33;11.30;;;7.63;;
6979;SDS011;3530;52.832;10.680;2023-11-22T16:33:18;7.80;;;6.05;;
6979;SDS011;3530;52.832;10.680;2023-11-22T16:36:06;8.30;;;5.53;;
6979;SDS011;3530;52.832;10.680;2023-11-22T16:38:52;7.10;;;6.32;;
6979;SDS011;3530;52.832;10.680;2023-11-22T16:41:40;14.55;;;9.50;;
6979;SDS011;3530;52.832;10.680;2023-11-22T16:44:25;6.15;;;5.43;;
6979;SDS011;3530;52.832;10.680;2023-11-22T16:47:11;5.95;;;5.30;;
6979;SDS011;3530;52.832;10.680;2023-11-22T16:49:57;5.35;;;4.88;;
6979;SDS011;3530;52.832;10.680;2023-11-22T16:52:42;7.57;;;5.70;;
6979;SDS011;3530;52.832;10.680;2023-11-22T16:55:28;6.82;;;5.82;;
6979;SDS011;3530;52.832;10.680;2023-11-22T16:58:14;13.88;;;5.47;;